Terminal Aerodrome Forecast
Issued by NWS

Home | Current Version | Previous Version | Text Only | Print | Product List | Glossary On
Versions: 1 2 3 4 5 6 7 8 9 10 11 12 13 14 15
000
FTUS44 KLIX 262300
TAFMSY
TAF
KMSY 262335Z 2700/2724 23012KT P6SM FEW010
     FM270400 28010KT P6SM SKC
     FM270700 32009KT P6SM SKC
     FM271400 36011KT P6SM SKC
     FM272200 36007KT P6SM SKC=

USA.gov is the U.S. government's official web portal to all federal, state and local government web resources and services.